Time;durP1;ratioP1;P1;durP2;ratioP2;P2;SDS_P1;SDS_P2;PMS_P1;PMS_P2;Temp;Humidity;BMP_temperature;BMP_pressure;BME280_temperature;BME280_humidity;BME280_pressure;Samples;Min_cycle;Max_cycle;Signal;HPM_P1;HPM_P2
2021/06/26 00:00:37;;;;;;;;;;;;;;;24.15;34.54;83303.00;2080824;28;786;-67
2021/06/26 00:01:38;;;;;;;;;;;;;;;24.15;34.81;83276.97;2079995;28;714;-67
2021/06/26 00:02:38;;;;;;;;;;;;;;;24.15;34.65;83282.97;2080504;28;869;-68
2021/06/26 00:03:38;;;;;;;;;;;;;;;24.15;34.83;83276.97;2080416;28;1154;-68
2021/06/26 00:04:39;;;;;;;;;;;;;;;24.15;34.63;83294.97;2080634;28;821;-67
2021/06/26 00:05:39;;;;;;;;;;;;;;;24.15;34.67;83264.97;2081313;28;1240;-67
2021/06/26 00:06:39;;;;;;;;;;;;;;;24.15;34.47;83278.97;2081037;28;680;-67
2021/06/26 00:07:40;;;;;;;;;;;;;;;24.15;34.53;83272.97;2080625;28;1046;-67
2021/06/26 00:08:40;;;;;;;;;;;;;;;24.15;34.35;83272.97;2080947;28;881;-68
2021/06/26 00:09:40;;;;;;;;;;;;;;;24.15;34.74;83270.97;2072744;28;889;-67
2021/06/26 00:10:41;;;;;;;;;;;;;;;24.15;34.81;83252.97;2080705;28;801;-68
2021/06/26 00:11:41;;;;;;;;;;;;;;;24.15;34.88;83317.00;2080236;28;869;-67
2021/06/26 00:12:41;;;;;;;;;;;;;;;24.15;34.56;83319.00;2073057;28;850;-68
2021/06/26 00:13:41;;;;;;;;;;;;;;;24.15;34.71;83272.97;2081046;28;900;-68
2021/06/26 00:14:41;;;;;;;;;;;;;;;24.15;34.63;83305.00;2081397;28;927;-66
2021/06/26 00:15:42;;;;;;;;;;;;;;;24.15;34.56;83284.97;2072523;28;1272;-68
2021/06/26 00:16:42;;;;;;;;;;;;;;;24.15;34.73;83284.97;2070070;28;1918;-68
2021/06/26 00:17:42;;;;;;;;;;;;;;;24.15;34.66;83272.97;2072680;28;1146;-69
2021/06/26 00:18:42;;;;;;;;;;;;;;;24.15;34.64;83260.97;2079668;28;1455;-67
2021/06/26 00:19:42;;;;;;;;;;;;;;;24.15;34.72;83278.97;2082184;28;1573;-67
2021/06/26 00:20:42;;;;;;;;;;;;;;;24.15;34.34;83284.97;2083061;28;797;-68
2021/06/26 00:21:43;;;;;;;;;;;;;;;24.15;34.65;83290.97;2082138;28;1023;-68
2021/06/26 00:22:43;;;;;;;;;;;;;;;24.15;34.51;83224.97;2081428;28;956;-68
2021/06/26 00:23:43;;;;;;;;;;;;;;;24.15;34.55;83264.97;2082210;28;910;-68
2021/06/26 00:24:43;;;;;;;;;;;;;;;24.15;34.49;83290.97;2083181;28;730;-68
2021/06/26 00:25:43;;;;;;;;;;;;;;;24.15;34.51;83309.00;2082646;28;1264;-70
2021/06/26 00:26:44;;;;;;;;;;;;;;;24.15;34.53;83327.00;2083240;28;821;-68
2021/06/26 00:27:44;;;;;;;;;;;;;;;24.15;34.56;83301.00;2083073;28;870;-68
2021/06/26 00:28:44;;;;;;;;;;;;;;;24.15;34.51;83284.97;2083316;28;880;-67
2021/06/26 00:29:44;;;;;;;;;;;;;;;24.15;34.49;83305.00;2083313;28;825;-67
2021/06/26 00:30:44;;;;;;;;;;;;;;;24.15;34.86;83290.97;2082126;28;924;-68
2021/06/26 00:31:45;;;;;;;;;;;;;;;24.15;34.63;83260.97;2072873;28;889;-68
2021/06/26 00:32:45;;;;;;;;;;;;;;;24.15;34.72;83286.97;2082108;28;802;-68
2021/06/26 00:33:45;;;;;;;;;;;;;;;24.15;34.68;83286.97;2082317;28;1046;-67
2021/06/26 00:34:45;;;;;;;;;;;;;;;24.15;34.58;83307.00;2082758;28;949;-68
2021/06/26 00:35:45;;;;;;;;;;;;;;;24.15;34.63;83351.00;2082415;28;1195;-67
2021/06/26 00:36:46;;;;;;;;;;;;;;;24.15;34.71;83274.97;2082174;28;1895;-67
2021/06/26 00:37:46;;;;;;;;;;;;;;;24.15;34.52;83329.00;2081188;28;1125;-67
2021/06/26 00:38:46;;;;;;;;;;;;;;;24.15;34.74;83381.00;2090456;28;828;-67
2021/06/26 00:39:46;;;;;;;;;;;;;;;24.15;34.79;83331.00;2091105;28;904;-68
2021/06/26 00:40:46;;;;;;;;;;;;;;;24.15;34.81;83319.00;2091162;28;872;-68
2021/06/26 00:41:46;;;;;;;;;;;;;;;24.15;34.97;83333.00;2090591;28;714;-67
2021/06/26 00:42:47;;;;;;;;;;;;;;;24.15;34.77;83325.00;2089918;28;968;-67
2021/06/26 00:43:47;;;;;;;;;;;;;;;24.15;34.83;83327.00;2090530;28;952;-67
2021/06/26 00:44:47;;;;;;;;;;;;;;;24.15;34.72;83317.00;2082095;28;974;-67
2021/06/26 00:45:47;;;;;;;;;;;;;;;24.15;34.93;83339.00;2065844;28;1278;-67
2021/06/26 00:46:47;;;;;;;;;;;;;;;24.15;35.11;83341.00;2082083;28;1000;-67
2021/06/26 00:47:48;;;;;;;;;;;;;;;24.15;35.30;83359.00;2090954;28;893;-67
2021/06/26 00:48:48;;;;;;;;;;;;;;;24.15;34.93;83349.00;2090856;28;804;-68
2021/06/26 00:49:48;;;;;;;;;;;;;;;24.15;34.74;83272.97;2091480;28;1045;-67
2021/06/26 00:50:48;;;;;;;;;;;;;;;24.15;34.71;83305.00;2091057;28;935;-67
2021/06/26 00:51:48;;;;;;;;;;;;;;;24.15;35.01;83311.00;2090384;28;804;-66
2021/06/26 00:52:49;;;;;;;;;;;;;;;24.15;34.78;83317.00;2091340;28;1136;-67
2021/06/26 00:53:49;;;;;;;;;;;;;;;24.15;34.78;83379.00;2090645;28;957;-67
2021/06/26 00:54:49;;;;;;;;;;;;;;;24.15;34.71;83329.00;2090361;28;817;-67
2021/06/26 00:55:52;;;;;;;;;;;;;;;24.15;34.55;83357.00;2080854;28;1086;-67
2021/06/26 00:56:52;;;;;;;;;;;;;;;24.15;34.79;83319.00;2074319;28;1991;-67
2021/06/26 00:57:54;;;;;;;;;;;;;;;24.15;34.62;83325.00;2076972;28;3580;-67
2021/06/26 00:58:55;;;;;;;;;;;;;;;24.15;34.77;83385.00;2090252;28;1377;-67
2021/06/26 00:59:55;;;;;;;;;;;;;;;24.15;34.68;83301.00;2089819;28;796;-68
2021/06/26 01:00:56;;;;;;;;;;;;;;;24.15;34.41;83337.00;2098140;28;960;-67
2021/06/26 01:01:56;;;;;;;;;;;;;;;24.15;34.80;83345.00;2089751;28;1243;-68
2021/06/26 01:02:56;;;;;;;;;;;;;;;24.15;35.07;83349.00;2073399;28;833;-67
2021/06/26 01:03:56;;;;;;;;;;;;;;;24.15;34.63;83325.00;2089354;28;845;-67
2021/06/26 01:04:56;;;;;;;;;;;;;;;24.15;35.07;83395.00;2081268;28;1330;-68
2021/06/26 01:05:57;;;;;;;;;;;;;;;24.15;34.77;83325.00;2073024;28;952;-68
2021/06/26 01:06:57;;;;;;;;;;;;;;;24.15;34.63;83347.00;2097335;28;630;-67
2021/06/26 01:07:57;;;;;;;;;;;;;;;24.15;34.61;83329.00;2097681;28;860;-67
2021/06/26 01:08:57;;;;;;;;;;;;;;;24.15;34.54;83393.00;2081530;28;727;-68
2021/06/26 01:09:58;;;;;;;;;;;;;;;24.15;34.79;83371.00;2088155;28;971;-68
2021/06/26 01:10:58;;;;;;;;;;;;;;;24.15;34.71;83345.00;2079432;28;1331;-67
2021/06/26 01:11:58;;;;;;;;;;;;;;;24.15;34.67;83347.00;2071318;28;1624;-67
2021/06/26 01:12:58;;;;;;;;;;;;;;;24.15;34.75;83341.00;2079601;28;782;-68
2021/06/26 01:13:58;;;;;;;;;;;;;;;24.15;34.96;83335.00;2080182;28;907;-67
2021/06/26 01:14:59;;;;;;;;;;;;;;;24.15;35.11;83355.00;2096553;28;1260;-68
2021/06/26 01:15:59;;;;;;;;;;;;;;;24.15;34.91;83363.00;2087977;28;809;-67
2021/06/26 01:17:03;;;;;;;;;;;;;;;24.15;34.63;83377.00;2080134;28;1985;-68
2021/06/26 01:18:03;;;;;;;;;;;;;;;24.15;34.51;83359.00;2088482;28;948;-67
2021/06/26 01:19:03;;;;;;;;;;;;;;;24.15;34.56;83383.00;2087916;28;987;-67
2021/06/26 01:20:03;;;;;;;;;;;;;;;24.15;34.79;83365.00;2071626;28;877;-67
2021/06/26 01:21:04;;;;;;;;;;;;;;;24.15;34.85;83383.00;2087838;28;936;-67
2021/06/26 01:22:06;;;;;;;;;;;;;;;24.15;34.57;83395.00;2096344;28;906;-68
2021/06/26 01:23:06;;;;;;;;;;;;;;;24.15;34.68;83383.00;2080008;28;837;-67
2021/06/26 01:24:06;;;;;;;;;;;;;;;24.15;34.46;83363.00;2079496;28;834;-67
2021/06/26 01:25:07;;;;;;;;;;;;;;;24.15;34.58;83353.00;2079869;28;1287;-67
2021/06/26 01:26:07;;;;;;;;;;;;;;;24.15;34.77;83379.00;2079878;28;880;-68
2021/06/26 01:27:08;;;;;;;;;;;;;;;24.15;34.53;83385.00;2080520;28;956;-67
2021/06/26 01:28:08;;;;;;;;;;;;;;;24.15;34.59;83373.00;2080664;28;881;-67
2021/06/26 01:29:09;;;;;;;;;;;;;;;24.15;34.41;83409.03;2080343;28;873;-67
2021/06/26 01:30:09;;;;;;;;;;;;;;;24.15;34.39;83365.00;2095987;28;951;-66
2021/06/26 01:31:10;;;;;;;;;;;;;;;24.15;34.83;83359.00;2087510;28;1066;-66
2021/06/26 01:32:10;;;;;;;;;;;;;;;24.15;34.96;83419.03;2087958;28;915;-67
2021/06/26 01:33:10;;;;;;;;;;;;;;;24.15;34.90;83405.03;2096100;28;863;-66
2021/06/26 01:34:10;;;;;;;;;;;;;;;24.15;35.05;83401.03;2080664;28;869;-68
2021/06/26 01:35:10;;;;;;;;;;;;;;;24.15;34.79;83405.03;2080133;28;1162;-68
2021/06/26 01:36:10;;;;;;;;;;;;;;;24.15;34.83;83449.03;2080275;28;789;-67
2021/06/26 01:37:11;;;;;;;;;;;;;;;24.15;34.77;83409.03;2080218;28;1969;-68
2021/06/26 01:38:11;;;;;;;;;;;;;;;24.15;35.03;83409.03;2096364;28;883;-67
2021/06/26 01:39:11;;;;;;;;;;;;;;;24.15;34.87;83389.00;2096149;28;936;-68
2021/06/26 01:40:15;;;;;;;;;;;;;;;24.15;34.60;83417.03;2079807;28;875;-67
2021/06/26 01:41:15;;;;;;;;;;;;;;;24.15;34.72;83423.03;2079228;28;1279;-67
2021/06/26 01:42:15;;;;;;;;;;;;;;;24.15;34.79;83415.03;2087949;28;952;-67
2021/06/26 01:43:15;;;;;;;;;;;;;;;24.15;34.90;83417.03;2080422;28;735;-67
2021/06/26 01:44:16;;;;;;;;;;;;;;;24.15;34.49;83443.03;2080334;28;976;-68
2021/06/26 01:45:16;;;;;;;;;;;;;;;24.15;34.63;83385.00;2079402;28;1289;-68
2021/06/26 01:46:16;;;;;;;;;;;;;;;24.15;34.93;83445.03;2088067;28;920;-68
2021/06/26 01:47:16;;;;;;;;;;;;;;;24.15;34.83;83427.03;2095811;28;888;-68
2021/06/26 01:48:17;;;;;;;;;;;;;;;24.15;34.77;83429.03;2071605;28;920;-67
2021/06/26 01:49:18;;;;;;;;;;;;;;;24.15;34.95;83437.03;2079619;28;823;-67
2021/06/26 01:50:18;;;;;;;;;;;;;;;24.15;35.02;83459.03;2088075;28;849;-68
2021/06/26 01:51:18;;;;;;;;;;;;;;;24.15;34.77;83415.03;2079190;28;841;-67
2021/06/26 01:52:18;;;;;;;;;;;;;;;24.15;34.76;83431.03;2080485;28;649;-67
2021/06/26 01:53:19;;;;;;;;;;;;;;;24.15;34.63;83405.03;2079159;28;913;-68
2021/06/26 01:54:19;;;;;;;;;;;;;;;24.15;34.68;83413.03;2087874;28;999;-67
2021/06/26 01:55:19;;;;;;;;;;;;;;;24.15;34.76;83431.03;2087771;28;1288;-68
2021/06/26 01:56:20;;;;;;;;;;;;;;;24.15;34.81;83449.03;2071586;28;790;-67
2021/06/26 01:57:20;;;;;;;;;;;;;;;24.15;34.93;83465.03;2079793;28;2768;-68
2021/06/26 01:58:20;;;;;;;;;;;;;;;24.15;34.55;83421.03;2079251;28;1424;-68
2021/06/26 01:59:20;;;;;;;;;;;;;;;24.15;34.64;83451.03;2079595;28;1137;-68
2021/06/26 02:00:21;;;;;;;;;;;;;;;24.15;34.95;83447.03;2088202;28;726;-67
2021/06/26 02:01:21;;;;;;;;;;;;;;;24.15;34.60;83479.03;2079117;28;1321;-68
2021/06/26 02:02:21;;;;;;;;;;;;;;;24.15;34.81;83419.03;2079420;28;935;-67
2021/06/26 02:03:21;;;;;;;;;;;;;;;24.15;34.58;83453.03;2087826;28;939;-68
2021/06/26 02:04:22;;;;;;;;;;;;;;;24.15;34.49;83435.03;2088054;28;805;-67
2021/06/26 02:05:23;;;;;;;;;;;;;;;24.15;34.86;83473.03;2079611;28;1326;-67
2021/06/26 02:06:23;;;;;;;;;;;;;;;24.15;34.58;83477.03;2079459;28;865;-68
2021/06/26 02:07:23;;;;;;;;;;;;;;;24.15;34.98;83465.03;2096176;28;1027;-67
2021/06/26 02:08:23;;;;;;;;;;;;;;;24.15;34.81;83433.03;2104391;28;935;-67
2021/06/26 02:09:24;;;;;;;;;;;;;;;24.15;34.90;83449.03;2088482;28;828;-68
2021/06/26 02:10:24;;;;;;;;;;;;;;;24.15;34.67;83413.03;2088083;28;832;-68
2021/06/26 02:14:40;;;;;;;;;;;;;;;24.15;34.38;83463.03;2069820;28;2558;-68
2021/06/26 02:15:40;;;;;;;;;;;;;;;24.15;34.01;83301.00;2076717;28;1957;-68
2021/06/26 02:16:40;;;;;;;;;;;;;;;24.15;33.79;83228.97;2079084;28;1965;-68
2021/06/26 02:17:40;;;;;;;;;;;;;;;24.15;33.67;83202.97;2079224;28;1132;-68
2021/06/26 02:18:40;;;;;;;;;;;;;;;24.15;33.54;83208.97;2079105;28;1036;-68
2021/06/26 02:19:41;;;;;;;;;;;;;;;24.15;33.57;83188.94;2079543;28;1258;-68
2021/06/26 02:20:41;;;;;;;;;;;;;;;24.15;33.41;83180.94;2080056;28;959;-68
2021/06/26 02:21:41;;;;;;;;;;;;;;;24.15;33.59;83198.97;2095408;28;837;-68
2021/06/26 02:22:45;;;;;;;;;;;;;;;24.15;33.39;83214.97;2095898;28;773;-68
2021/06/26 02:23:45;;;;;;;;;;;;;;;24.15;33.47;83210.97;2080067;28;837;-68
2021/06/26 02:24:46;;;;;;;;;;;;;;;24.15;33.48;83152.94;2095898;28;842;-68
2021/06/26 02:25:46;;;;;;;;;;;;;;;24.15;33.34;83174.94;2079408;28;1604;-68
2021/06/26 02:26:46;;;;;;;;;;;;;;;24.15;33.39;83206.97;2071133;28;888;-68
2021/06/26 02:27:46;;;;;;;;;;;;;;;24.15;33.25;83248.97;2079918;28;955;-68
2021/06/26 02:28:46;;;;;;;;;;;;;;;24.15;33.56;83244.97;2095732;28;873;-68
2021/06/26 02:29:46;;;;;;;;;;;;;;;24.15;33.30;83276.97;2087772;28;854;-69
2021/06/26 02:30:47;;;;;;;;;;;;;;;24.15;33.43;83232.97;2071169;28;996;-68
2021/06/26 02:31:47;;;;;;;;;;;;;;;24.15;33.43;83254.97;2087162;28;1319;-68
2021/06/26 02:32:47;;;;;;;;;;;;;;;24.15;33.77;83266.97;2087050;28;2086;-68
2021/06/26 02:33:47;;;;;;;;;;;;;;;24.15;33.25;83288.97;2071333;28;920;-68
2021/06/26 02:34:47;;;;;;;;;;;;;;;24.15;33.31;83298.97;2071107;28;936;-68
2021/06/26 02:35:48;;;;;;;;;;;;;;;24.15;33.42;83234.97;2079407;28;1246;-68
2021/06/26 02:36:48;;;;;;;;;;;;;;;24.15;33.25;83264.97;2095740;28;1969;-68
2021/06/26 02:37:48;;;;;;;;;;;;;;;24.15;33.67;83256.97;2094543;28;1199;-68
2021/06/26 02:38:48;;;;;;;;;;;;;;;24.15;33.14;83266.97;2079554;28;1559;-69
2021/06/26 02:39:48;;;;;;;;;;;;;;;24.15;33.47;83276.97;2085752;28;1285;-69
2021/06/26 02:40:49;;;;;;;;;;;;;;;24.15;33.48;83284.97;2088321;28;833;-68
2021/06/26 02:41:49;;;;;;;;;;;;;;;24.15;33.41;83272.97;2087428;28;880;-67
2021/06/26 02:42:49;;;;;;;;;;;;;;;24.15;33.42;83274.97;2087636;28;889;-68
2021/06/26 02:43:49;;;;;;;;;;;;;;;24.15;33.21;83303.00;2087376;28;723;-68
2021/06/26 02:44:49;;;;;;;;;;;;;;;24.15;33.26;83278.97;2079179;28;1222;-68
2021/06/26 02:45:50;;;;;;;;;;;;;;;24.15;33.36;83276.97;2079081;28;1172;-68
2021/06/26 02:46:50;;;;;;;;;;;;;;;24.15;33.48;83288.97;2087736;28;873;-68
2021/06/26 02:47:51;;;;;;;;;;;;;;;24.15;33.28;83303.00;2079599;28;789;-67
2021/06/26 02:48:51;;;;;;;;;;;;;;;24.15;33.35;83258.97;2078835;28;1433;-68
2021/06/26 02:49:52;;;;;;;;;;;;;;;24.15;33.76;83280.97;2062890;28;952;-68
2021/06/26 02:50:52;;;;;;;;;;;;;;;24.15;33.56;83262.97;2070831;28;894;-67
2021/06/26 02:51:52;;;;;;;;;;;;;;;24.15;33.49;83296.97;2086522;28;841;-68
2021/06/26 02:52:52;;;;;;;;;;;;;;;24.15;33.81;83290.97;2087393;28;849;-68
2021/06/26 02:53:52;;;;;;;;;;;;;;;24.15;33.69;83337.00;2087306;28;765;-68
2021/06/26 02:54:53;;;;;;;;;;;;;;;24.15;33.81;83305.00;2087483;28;983;-68
2021/06/26 02:55:55;;;;;;;;;;;;;;;24.15;33.56;83303.00;2078985;28;1334;-68
2021/06/26 02:56:55;;;;;;;;;;;;;;;24.15;33.35;83345.00;2079376;28;1953;-68
2021/06/26 02:57:57;;;;;;;;;;;;;;;24.15;33.24;83274.97;2087404;28;924;-68
2021/06/26 02:58:57;;;;;;;;;;;;;;;24.15;33.51;83282.97;2088150;28;899;-67
2021/06/26 02:59:57;;;;;;;;;;;;;;;24.15;33.46;83298.97;2087358;28;817;-67
2021/06/26 03:00:57;;;;;;;;;;;;;;;24.15;33.55;83339.00;2087565;28;849;-67
2021/06/26 03:01:57;;;;;;;;;;;;;;;24.15;33.55;83345.00;2086627;28;852;-68
2021/06/26 03:02:58;;;;;;;;;;;;;;;24.15;33.59;83339.00;2087288;28;641;-68
2021/06/26 03:03:58;;;;;;;;;;;;;;;24.15;33.49;83325.00;2087903;28;885;-67
2021/06/26 03:04:58;;;;;;;;;;;;;;;24.15;33.42;83301.00;2088216;28;1324;-68
2021/06/26 03:05:58;;;;;;;;;;;;;;;24.15;33.63;83349.00;2087280;28;797;-68
2021/06/26 03:06:58;;;;;;;;;;;;;;;24.15;33.84;83357.00;2087646;28;853;-69
2021/06/26 03:07:59;;;;;;;;;;;;;;;24.15;33.85;83389.00;2087416;28;972;-68
2021/06/26 03:08:59;;;;;;;;;;;;;;;24.15;33.77;83339.00;2087039;28;928;-68
2021/06/26 03:09:59;;;;;;;;;;;;;;;24.15;33.64;83375.00;2080446;28;3314;-68
2021/06/26 03:10:59;;;;;;;;;;;;;;;24.15;33.53;83317.00;2078818;28;1168;-67
2021/06/26 03:12:00;;;;;;;;;;;;;;;24.15;33.56;83369.00;2078504;28;1348;-68
2021/06/26 03:13:00;;;;;;;;;;;;;;;24.15;33.79;83367.00;2062782;28;1213;-68
2021/06/26 03:14:00;;;;;;;;;;;;;;;24.15;33.80;83371.00;2070920;28;984;-68
2021/06/26 03:15:00;;;;;;;;;;;;;;;24.15;33.90;83379.00;2078551;28;1209;-68
2021/06/26 03:16:01;;;;;;;;;;;;;;;24.15;33.83;83365.00;2095747;28;809;-67
2021/06/26 03:17:01;;;;;;;;;;;;;;;24.15;33.74;83309.00;2095632;28;1901;-68
2021/06/26 03:18:01;;;;;;;;;;;;;;;24.15;33.40;83303.00;2078854;28;1004;-68
2021/06/26 03:19:01;;;;;;;;;;;;;;;24.15;33.58;83309.00;2078360;28;793;-69
2021/06/26 03:20:02;;;;;;;;;;;;;;;24.15;33.30;83351.00;2079463;28;823;-69
2021/06/26 03:21:02;;;;;;;;;;;;;;;24.15;33.27;83311.00;2079634;28;876;-69
2021/06/26 03:22:02;;;;;;;;;;;;;;;24.15;33.45;83327.00;2095034;28;1074;-70
2021/06/26 03:23:02;;;;;;;;;;;;;;;24.15;33.12;83337.00;2096102;28;999;-68
2021/06/26 03:24:03;;;;;;;;;;;;;;;24.15;33.40;83331.00;2070722;28;1341;-68
2021/06/26 03:25:04;;;;;;;;;;;;;;;24.15;33.15;83301.00;2070813;28;1220;-67
2021/06/26 03:26:05;;;;;;;;;;;;;;;24.15;32.96;83329.00;2070872;28;1277;-68
2021/06/26 03:27:05;;;;;;;;;;;;;;;24.15;33.31;83325.00;2062622;28;798;-68
2021/06/26 03:28:05;;;;;;;;;;;;;;;24.15;33.26;83333.00;2071272;28;1062;-68
2021/06/26 03:29:06;;;;;;;;;;;;;;;24.15;33.00;83349.00;2079590;28;813;-68
2021/06/26 03:30:06;;;;;;;;;;;;;;;24.15;33.14;83331.00;2079872;28;664;-69
2021/06/26 03:31:06;;;;;;;;;;;;;;;24.15;33.30;83353.00;2095392;28;1142;-68
2021/06/26 03:32:07;;;;;;;;;;;;;;;24.15;33.16;83325.00;2086510;28;834;-68
2021/06/26 03:33:07;;;;;;;;;;;;;;;24.15;33.57;83357.00;2079095;28;805;-68
2021/06/26 03:34:07;;;;;;;;;;;;;;;24.15;33.14;83339.00;2079955;28;858;-68
2021/06/26 03:35:07;;;;;;;;;;;;;;;24.15;33.14;83335.00;2078927;28;1215;-68
2021/06/26 03:36:08;;;;;;;;;;;;;;;24.15;33.51;83371.00;2079193;28;800;-68
2021/06/26 03:37:08;;;;;;;;;;;;;;;24.15;33.44;83369.00;2079597;28;1906;-68
2021/06/26 03:38:08;;;;;;;;;;;;;;;24.15;33.26;83359.00;2079494;28;789;-69
2021/06/26 03:39:09;;;;;;;;;;;;;;;24.15;33.34;83347.00;2079816;28;838;-68
2021/06/26 03:40:09;;;;;;;;;;;;;;;24.15;33.34;83381.00;2079678;28;785;-68
2021/06/26 03:41:09;;;;;;;;;;;;;;;24.15;33.08;83361.00;2095778;28;861;-68
2021/06/26 03:42:09;;;;;;;;;;;;;;;24.15;33.33;83383.00;2086694;28;995;-68
2021/06/26 03:43:10;;;;;;;;;;;;;;;24.15;33.40;83373.00;2079136;28;872;-68
2021/06/26 03:44:10;;;;;;;;;;;;;;;24.15;33.44;83329.00;2079335;28;809;-69
2021/06/26 03:45:10;;;;;;;;;;;;;;;24.15;33.32;83343.00;2079862;28;1205;-68
2021/06/26 03:46:10;;;;;;;;;;;;;;;24.15;33.19;83335.00;2087112;28;805;-69
2021/06/26 03:47:11;;;;;;;;;;;;;;;24.15;33.45;83361.00;2087501;28;942;-68
2021/06/26 03:48:11;;;;;;;;;;;;;;;24.15;33.22;83337.00;2079640;28;849;-68
2021/06/26 03:49:11;;;;;;;;;;;;;;;24.15;33.59;83357.00;2079610;28;842;-68
2021/06/26 03:50:11;;;;;;;;;;;;;;;24.15;33.48;83375.00;2079764;28;802;-68
2021/06/26 03:51:12;;;;;;;;;;;;;;;24.15;33.67;83381.00;2079902;28;792;-68
2021/06/26 03:52:12;;;;;;;;;;;;;;;24.15;33.64;83393.00;2079172;28;800;-68
2021/06/26 03:53:12;;;;;;;;;;;;;;;24.15;33.47;83401.03;2079870;28;806;-67
2021/06/26 03:54:12;;;;;;;;;;;;;;;24.15;33.49;83383.00;2079357;28;2919;-69
2021/06/26 03:55:12;;;;;;;;;;;;;;;24.15;33.52;83399.03;2078597;28;1315;-70
2021/06/26 03:56:13;;;;;;;;;;;;;;;24.15;33.49;83343.00;2086861;28;1260;-70
2021/06/26 03:57:13;;;;;;;;;;;;;;;24.15;33.51;83361.00;2095593;28;1902;-69
2021/06/26 03:58:13;;;;;;;;;;;;;;;24.15;33.46;83365.00;2071378;28;1240;-68
2021/06/26 03:59:13;;;;;;;;;;;;;;;24.15;33.69;83351.00;2070774;28;665;-70
2021/06/26 04:00:14;;;;;;;;;;;;;;;24.15;33.37;83357.00;2078662;28;968;-70
2021/06/26 04:01:14;;;;;;;;;;;;;;;24.15;33.59;83397.00;2078660;28;799;-69
2021/06/26 04:02:14;;;;;;;;;;;;;;;24.15;33.43;83373.00;2079227;28;928;-69
2021/06/26 04:03:16;;;;;;;;;;;;;;;24.15;33.50;83405.03;2095341;28;801;-68
2021/06/26 04:04:16;;;;;;;;;;;;;;;24.15;33.44;83397.00;2087069;28;813;-68
2021/06/26 04:05:16;;;;;;;;;;;;;;;24.15;33.60;83389.00;2079142;28;1221;-69
2021/06/26 04:06:16;;;;;;;;;;;;;;;24.15;33.88;83395.00;2079356;28;889;-68
2021/06/26 04:07:16;;;;;;;;;;;;;;;24.15;33.84;83399.03;2079699;28;1404;-69
2021/06/26 04:08:17;;;;;;;;;;;;;;;24.15;33.58;83393.00;2079701;28;833;-69
2021/06/26 04:09:17;;;;;;;;;;;;;;;24.15;33.22;83381.00;2078626;28;1703;-68
2021/06/26 04:10:17;;;;;;;;;;;;;;;24.15;33.40;83387.00;2079216;28;916;-68
2021/06/26 04:11:18;;;;;;;;;;;;;;;24.15;33.70;83379.00;2078982;28;860;-69
2021/06/26 04:12:18;;;;;;;;;;;;;;;24.15;33.42;83401.03;2078722;28;995;-69
2021/06/26 04:13:18;;;;;;;;;;;;;;;24.15;33.46;83383.00;2070610;28;916;-69
2021/06/26 04:14:18;;;;;;;;;;;;;;;24.15;33.61;83411.03;2078847;28;809;-69
2021/06/26 04:15:18;;;;;;;;;;;;;;;24.15;33.89;83391.00;2078576;28;1227;-70
2021/06/26 04:16:19;;;;;;;;;;;;;;;24.15;33.77;83395.00;2070870;28;848;-69
2021/06/26 04:17:19;;;;;;;;;;;;;;;24.15;33.38;83393.00;2078539;28;1910;-70
2021/06/26 04:18:19;;;;;;;;;;;;;;;24.15;33.64;83413.03;2079824;28;896;-69
2021/06/26 04:19:19;;;;;;;;;;;;;;;24.15;33.82;83445.03;2078803;28;845;-70
2021/06/26 04:20:19;;;;;;;;;;;;;;;24.15;33.63;83437.03;2079128;28;892;-69
2021/06/26 04:21:19;;;;;;;;;;;;;;;24.15;33.63;83373.00;2079059;28;877;-70
2021/06/26 04:22:20;;;;;;;;;;;;;;;24.15;33.62;83403.03;2079033;28;653;-67
2021/06/26 04:23:20;;;;;;;;;;;;;;;24.15;33.58;83367.00;2070167;28;1294;-68
2021/06/26 04:24:20;;;;;;;;;;;;;;;24.15;33.49;83407.03;2078939;28;877;-68
2021/06/26 04:25:20;;;;;;;;;;;;;;;24.15;33.48;83433.03;2079509;28;1324;-68
2021/06/26 04:26:20;;;;;;;;;;;;;;;24.15;33.58;83429.03;2079044;28;889;-67
2021/06/26 04:27:21;;;;;;;;;;;;;;;24.15;33.45;83413.03;2070681;28;893;-68
2021/06/26 04:28:21;;;;;;;;;;;;;;;24.15;33.65;83381.00;2070820;28;861;-67
2021/06/26 04:29:21;;;;;;;;;;;;;;;24.15;33.68;83385.00;2078291;28;909;-67
2021/06/26 04:30:21;;;;;;;;;;;;;;;24.15;33.93;83421.03;2080725;28;964;-68
2021/06/26 04:31:21;;;;;;;;;;;;;;;24.15;33.85;83415.03;2071766;28;1215;-67
2021/06/26 04:32:22;;;;;;;;;;;;;;;24.15;33.93;83433.03;2072230;28;705;-67
2021/06/26 04:33:24;;;;;;;;;;;;;;;24.15;33.72;83485.06;2072039;28;912;-68
2021/06/26 04:34:25;;;;;;;;;;;;;;;24.15;33.86;83415.03;2064494;28;913;-68
2021/06/26 04:35:25;;;;;;;;;;;;;;;24.15;34.07;83433.03;2080464;28;1190;-67
2021/06/26 04:36:26;;;;;;;;;;;;;;;24.15;34.07;83379.00;2079969;28;1223;-67
2021/06/26 04:37:26;;;;;;;;;;;;;;;24.15;33.86;83389.00;2079706;28;1922;-68
2021/06/26 04:38:26;;;;;;;;;;;;;;;24.15;33.78;83399.03;2079561;28;854;-67
2021/06/26 04:39:26;;;;;;;;;;;;;;;24.15;33.73;83441.03;2071566;28;995;-67
2021/06/26 04:40:26;;;;;;;;;;;;;;;24.15;33.85;83395.00;2080576;28;983;-67
2021/06/26 04:41:28;;;;;;;;;;;;;;;24.15;33.81;83435.03;2087691;28;852;-67
2021/06/26 04:42:28;;;;;;;;;;;;;;;24.15;33.82;83417.03;2087639;28;879;-67
2021/06/26 04:43:28;;;;;;;;;;;;;;;24.15;34.07;83443.03;2088848;28;647;-67
2021/06/26 04:44:28;;;;;;;;;;;;;;;24.15;33.91;83407.03;2088706;28;824;-67
2021/06/26 04:45:29;;;;;;;;;;;;;;;24.15;33.84;83457.03;2088824;28;1169;-67
2021/06/26 04:46:29;;;;;;;;;;;;;;;24.15;34.16;83445.03;2087733;28;932;-67
2021/06/26 04:47:29;;;;;;;;;;;;;;;24.15;33.67;83425.03;2088250;28;1034;-67
2021/06/26 04:48:29;;;;;;;;;;;;;;;24.15;34.04;83427.03;2087894;28;825;-67
2021/06/26 04:49:29;;;;;;;;;;;;;;;24.15;33.93;83423.03;2071721;28;905;-67
2021/06/26 04:50:31;;;;;;;;;;;;;;;24.15;33.63;83423.03;2079522;28;934;-67
2021/06/26 04:51:33;;;;;;;;;;;;;;;24.15;33.98;83447.03;2087763;28;905;-67
2021/06/26 04:52:33;;;;;;;;;;;;;;;24.15;33.77;83447.03;2087201;28;873;-67
2021/06/26 04:53:33;;;;;;;;;;;;;;;24.15;33.85;83427.03;2079635;28;1156;-67
2021/06/26 04:54:33;;;;;;;;;;;;;;;24.15;34.01;83411.03;2063766;28;3443;-67
2021/06/26 04:55:33;;;;;;;;;;;;;;;24.15;33.91;83451.03;2066173;28;1298;-67
2021/06/26 04:56:34;;;;;;;;;;;;;;;24.15;33.80;83441.03;2087532;28;1961;-67
2021/06/26 04:57:34;;;;;;;;;;;;;;;24.15;34.10;83439.03;2079948;28;1166;-66
2021/06/26 04:58:34;;;;;;;;;;;;;;;24.15;34.21;83435.03;2079395;28;806;-67
2021/06/26 04:59:34;;;;;;;;;;;;;;;24.15;33.66;83451.03;2096472;28;833;-68
2021/06/26 05:00:35;;;;;;;;;;;;;;;24.15;33.88;83403.03;2096318;28;992;-67
2021/06/26 05:01:35;;;;;;;;;;;;;;;24.15;34.19;83457.03;2080361;28;809;-67
2021/06/26 05:02:35;;;;;;;;;;;;;;;24.15;33.86;83427.03;2096269;28;816;-66
2021/06/26 05:03:35;;;;;;;;;;;;;;;24.15;34.00;83429.03;2096608;28;940;-67
2021/06/26 05:04:35;;;;;;;;;;;;;;;24.15;33.95;83447.03;2080782;28;945;-67
2021/06/26 05:05:36;;;;;;;;;;;;;;;24.15;33.88;83425.03;2096388;28;1293;-67
2021/06/26 05:06:36;;;;;;;;;;;;;;;24.15;34.27;83417.03;2088469;28;908;-67
2021/06/26 05:07:36;;;;;;;;;;;;;;;24.15;33.88;83429.03;2071772;28;1275;-68
2021/06/26 05:08:36;;;;;;;;;;;;;;;24.15;34.15;83397.00;2088301;28;1484;-67
2021/06/26 05:09:36;;;;;;;;;;;;;;;24.15;34.23;83411.03;2079749;28;980;-67
2021/06/26 05:10:36;;;;;;;;;;;;;;;24.15;33.98;83439.03;2080067;28;933;-67
2021/06/26 05:11:37;;;;;;;;;;;;;;;24.15;34.37;83441.03;2087647;28;834;-67
2021/06/26 05:12:40;;;;;;;;;;;;;;;24.15;34.22;83441.03;2088339;28;1485;-67
2021/06/26 05:13:40;;;;;;;;;;;;;;;24.15;34.27;83443.03;2079824;28;769;-67
2021/06/26 05:14:41;;;;;;;;;;;;;;;24.15;34.29;83457.03;2080212;28;939;-67
2021/06/26 05:15:41;;;;;;;;;;;;;;;24.15;34.29;83445.03;2079975;28;1234;-67
2021/06/26 05:16:42;;;;;;;;;;;;;;;24.15;34.66;83417.03;2079773;28;1914;-67
2021/06/26 05:17:42;;;;;;;;;;;;;;;24.15;34.77;83441.03;2079690;28;1322;-68
2021/06/26 05:18:42;;;;;;;;;;;;;;;24.15;34.61;83407.03;2063858;28;967;-67
2021/06/26 05:19:42;;;;;;;;;;;;;;;24.15;34.51;83403.03;2087938;28;880;-67
2021/06/26 05:20:43;;;;;;;;;;;;;;;24.15;34.46;83425.03;2088460;28;972;-68
2021/06/26 05:21:43;;;;;;;;;;;;;;;24.15;34.60;83393.00;2062865;28;1432;-67
2021/06/26 05:22:43;;;;;;;;;;;;;;;24.15;34.30;83435.03;2071784;28;825;-67
2021/06/26 05:23:43;;;;;;;;;;;;;;;24.15;34.93;83453.03;2080331;28;1054;-68
2021/06/26 05:24:43;;;;;;;;;;;;;;;24.15;34.47;83369.00;2080844;28;909;-67